Time;durP1;ratioP1;P1;durP2;ratioP2;P2;SDS_P1;SDS_P2;PMS_P1;PMS_P2;Temp;Humidity;BMP_temperature;BMP_pressure;BME280_temperature;BME280_humidity;BME280_pressure;Samples;Min_cycle;Max_cycle;Signal;HPM_P1;HPM_P2
2021/07/16 00:03:17;;;;;;;9.73;7.40;;;;;;;15.12;100.00;102573.74;1970588;73;32939;-76
2021/07/16 00:08:39;;;;;;;13.73;7.87;;;;;;;15.16;100.00;102578.52;1970703;72;32929;-76
2021/07/16 00:14:06;;;;;;;12.57;7.57;;;;;;;15.10;100.00;102578.23;1970694;72;32998;-75
2021/07/16 00:19:30;;;;;;;12.37;7.53;;;;;;;15.02;100.00;102578.73;1970609;73;33032;-76
2021/07/16 00:24:55;;;;;;;10.37;8.10;;;;;;;14.96;100.00;102580.69;1970631;73;33131;-76
2021/07/16 00:30:21;;;;;;;12.80;8.20;;;;;;;14.84;100.00;102573.63;1970684;73;33381;-75
2021/07/16 00:35:45;;;;;;;13.37;8.60;;;;;;;14.78;100.00;102584.50;1970693;73;32929;-77
2021/07/16 00:41:10;;;;;;;11.93;8.27;;;;;;;14.89;100.00;102584.86;1970759;73;32966;-75
2021/07/16 00:46:34;;;;;;;14.03;7.30;;;;;;;14.75;100.00;102584.50;1970870;73;33037;-75
2021/07/16 00:51:59;;;;;;;11.27;7.87;;;;;;;14.57;100.00;102582.98;1970705;73;33259;-75
2021/07/16 00:57:24;;;;;;;17.93;8.77;;;;;;;14.45;100.00;102589.89;1970586;73;32960;-75
2021/07/16 01:02:50;;;;;;;12.43;8.10;;;;;;;14.54;100.00;102593.33;1970607;73;33089;-76
2021/07/16 01:08:15;;;;;;;16.03;8.37;;;;;;;14.44;100.00;102600.23;1970874;73;33449;-75
2021/07/16 01:13:40;;;;;;;14.30;7.90;;;;;;;14.39;100.00;102603.53;1970748;73;33051;-74
2021/07/16 01:19:05;;;;;;;15.33;8.50;;;;;;;14.33;100.00;102609.63;1970730;73;32966;-77
2021/07/16 01:24:32;;;;;;;14.03;8.00;;;;;;;14.25;100.00;102615.69;1970654;73;33077;-77
2021/07/16 01:29:57;;;;;;;14.83;8.60;;;;;;;14.19;100.00;102616.77;1970688;73;32872;-75
2021/07/16 01:35:23;;;;;;;9.90;8.47;;;;;;;14.17;100.00;102613.94;1970685;73;33579;-77
2021/07/16 01:40:48;;;;;;;13.60;8.20;;;;;;;14.35;100.00;102620.02;1970824;73;32904;-76
2021/07/16 01:46:15;;;;;;;12.57;7.87;;;;;;;14.03;100.00;102628.94;1970911;73;32944;-75
2021/07/16 01:51:39;;;;;;;16.03;8.50;;;;;;;14.10;100.00;102624.80;1970783;73;32878;-76
2021/07/16 01:57:04;;;;;;;14.10;8.20;;;;;;;14.11;100.00;102624.25;1970815;73;33360;-77
2021/07/16 02:02:28;;;;;;;13.50;8.60;;;;;;;14.00;100.00;102632.23;1970889;73;33393;-76
2021/07/16 02:07:55;;;;;;;18.53;8.93;;;;;;;13.92;100.00;102632.72;1970820;72;34303;-75
2021/07/16 02:13:20;;;;;;;13.43;8.80;;;;;;;13.85;100.00;102620.37;1970740;73;32947;-75
2021/07/16 02:18:49;;;;;;;14.17;8.53;;;;;;;13.74;100.00;102615.77;1970927;73;33105;-77
2021/07/16 02:24:14;;;;;;;11.73;8.80;;;;;;;13.81;100.00;102637.92;1970689;73;33100;-75
2021/07/16 02:29:38;;;;;;;15.43;9.07;;;;;;;13.86;100.00;102636.00;1970617;73;32894;-75
2021/07/16 02:35:04;;;;;;;17.03;9.70;;;;;;;13.75;100.00;102633.37;1970624;73;33027;-74
2021/07/16 02:40:31;;;;;;;12.47;8.73;;;;;;;13.69;100.00;102640.88;1970585;73;33017;-76
2021/07/16 02:46:14;;;;;;;14.30;8.93;;;;;;;13.73;100.00;102640.64;2014973;71;32862;-75
2021/07/16 02:51:39;;;;;;;14.10;8.80;;;;;;;13.66;100.00;102631.61;1970773;73;32929;-74
2021/07/16 02:57:04;;;;;;;15.00;8.53;;;;;;;13.53;100.00;102627.28;1970709;73;33028;-75
2021/07/16 03:02:29;;;;;;;14.37;9.03;;;;;;;13.67;100.00;102631.91;1970568;73;32959;-75
2021/07/16 03:07:53;;;;;;;14.93;9.50;;;;;;;13.46;100.00;102631.39;1970592;73;32921;-75
2021/07/16 03:13:20;;;;;;;10.53;9.00;;;;;;;13.54;100.00;102633.72;1970918;73;33416;-77
2021/07/16 03:18:44;;;;;;;12.13;8.53;;;;;;;13.55;100.00;102634.02;1971030;72;33440;-76
2021/07/16 03:24:08;;;;;;;11.93;8.97;;;;;;;13.38;100.00;102644.41;1970691;73;32974;-76
2021/07/16 03:29:33;;;;;;;16.87;9.33;;;;;;;13.38;100.00;102646.66;1971086;73;33016;-75
2021/07/16 03:34:57;;;;;;;15.00;9.37;;;;;;;13.39;100.00;102651.11;1970967;73;33587;-75
2021/07/16 03:40:27;;;;;;;12.47;8.73;;;;;;;13.43;100.00;102644.48;1970695;73;32933;-77
2021/07/16 03:45:52;;;;;;;12.87;8.67;;;;;;;13.31;100.00;102640.41;1970431;73;32926;-77
2021/07/16 03:51:16;;;;;;;11.30;8.70;;;;;;;13.25;100.00;102647.59;1970664;73;32999;-77
2021/07/16 03:56:40;;;;;;;14.40;9.03;;;;;;;13.29;100.00;102649.61;1970817;73;33115;-76
2021/07/16 04:02:06;;;;;;;15.53;9.53;;;;;;;13.23;100.00;102654.81;1906394;73;39620;-74
2021/07/16 04:07:33;;;;;;;14.53;9.17;;;;;;;13.21;100.00;102650.91;1970648;73;33382;-77
2021/07/16 04:13:16;;;;;;;17.57;10.13;;;;;;;13.10;100.00;102655.16;2012759;71;34928;-75
2021/07/16 04:18:40;;;;;;;14.03;9.00;;;;;;;13.00;100.00;102651.71;1970738;73;33107;-76
2021/07/16 04:24:06;;;;;;;11.27;7.90;;;;;;;12.99;100.00;102651.41;1970647;73;33197;-77
2021/07/16 04:29:30;;;;;;;12.90;8.50;;;;;;;13.16;100.00;102656.97;1970676;73;32993;-74
2021/07/16 04:34:55;;;;;;;12.57;8.07;;;;;;;12.81;100.00;102655.03;1970859;73;33334;-76
2021/07/16 04:40:23;;;;;;;13.40;8.10;;;;;;;12.93;100.00;102651.03;1970678;73;33050;-75
2021/07/16 04:45:48;;;;;;;14.27;8.97;;;;;;;13.07;100.00;102645.92;1970619;73;32927;-74
2021/07/16 04:51:14;;;;;;;11.57;7.93;;;;;;;13.23;100.00;102654.81;1970716;73;32989;-75
2021/07/16 04:56:39;;;;;;;10.07;8.33;;;;;;;13.24;100.00;102660.70;1970927;73;32918;-77
2021/07/16 05:02:04;;;;;;;14.77;9.80;;;;;;;13.42;100.00;102669.30;1970475;73;32924;-77
2021/07/16 05:07:28;;;;;;;15.60;9.57;;;;;;;13.40;100.00;102665.37;1970819;73;32879;-75
2021/07/16 05:12:52;;;;;;;16.93;9.93;;;;;;;13.47;100.00;102673.56;1970881;73;33023;-76
2021/07/16 05:18:17;;;;;;;12.73;10.13;;;;;;;13.54;100.00;102669.47;1970802;73;33387;-76
2021/07/16 05:23:42;;;;;;;16.43;10.93;;;;;;;13.63;100.00;102668.45;1970677;73;32889;-77
2021/07/16 05:29:07;;;;;;;14.30;10.43;;;;;;;13.65;100.00;102672.66;1970810;73;32924;-74
2021/07/16 05:34:31;;;;;;;14.87;10.10;;;;;;;13.74;100.00;102678.62;1970739;73;33037;-73
2021/07/16 05:39:56;;;;;;;15.87;10.00;;;;;;;14.09;100.00;102680.95;1970821;73;33001;-75
2021/07/16 05:45:22;;;;;;;16.20;10.00;;;;;;;14.05;100.00;102683.44;1970862;73;33346;-75
2021/07/16 05:50:48;;;;;;;14.60;9.90;;;;;;;14.24;100.00;102685.86;1970489;73;33105;-75
2021/07/16 05:56:15;;;;;;;15.90;9.53;;;;;;;14.15;100.00;102699.47;1970299;73;33043;-75
2021/07/16 06:01:40;;;;;;;17.17;10.50;;;;;;;14.20;100.00;102703.72;1970341;72;33029;-74
2021/07/16 06:07:05;;;;;;;16.37;10.43;;;;;;;14.40;100.00;102703.09;1970591;72;33026;-73
2021/07/16 06:12:30;;;;;;;14.67;9.73;;;;;;;14.49;100.00;102709.89;1970619;73;33103;-76
2021/07/16 06:17:55;;;;;;;14.37;9.23;;;;;;;14.57;100.00;102721.42;1970837;73;32988;-74
2021/07/16 06:23:18;;;;;;;13.60;10.13;;;;;;;14.76;100.00;102713.45;1970448;73;32985;-75
2021/07/16 06:28:42;;;;;;;15.30;10.23;;;;;;;14.86;100.00;102717.73;1970974;73;33472;-74
2021/07/16 06:34:07;;;;;;;16.20;9.97;;;;;;;14.88;100.00;102725.88;1970915;73;33631;-75
2021/07/16 06:39:31;;;;;;;16.57;10.50;;;;;;;15.04;100.00;102722.91;1970689;73;32979;-75
2021/07/16 06:44:56;;;;;;;16.23;9.87;;;;;;;15.13;100.00;102712.05;1970728;72;33025;-75
2021/07/16 06:50:20;;;;;;;13.47;9.23;;;;;;;15.23;100.00;102711.27;1970716;73;33180;-73
2021/07/16 06:55:45;;;;;;;14.00;9.17;;;;;;;15.28;100.00;102707.92;1970791;73;33489;-74
2021/07/16 07:01:10;;;;;;;14.53;9.37;;;;;;;15.43;100.00;102705.77;1970657;73;32916;-74
2021/07/16 07:06:53;;;;;;;19.10;9.17;;;;;;;15.62;100.00;102707.55;2014685;71;32840;-75
2021/07/16 07:12:17;;;;;;;14.67;8.20;;;;;;;15.67;100.00;102707.02;1970779;72;32867;-75
2021/07/16 07:17:42;;;;;;;14.47;7.40;;;;;;;15.91;100.00;102705.44;1970903;73;33474;-74
2021/07/16 07:23:08;;;;;;;13.07;7.87;;;;;;;15.98;100.00;102702.91;1970702;73;33058;-73
2021/07/16 07:28:33;;;;;;;15.17;8.23;;;;;;;16.12;100.00;102688.09;1970378;73;33452;-73
2021/07/16 07:33:57;;;;;;;12.47;8.10;;;;;;;16.50;100.00;102706.92;1970464;73;32940;-74
2021/07/16 07:39:21;;;;;;;10.73;7.17;;;;;;;16.61;100.00;102705.81;1970353;73;33028;-73
2021/07/16 07:44:46;;;;;;;14.40;7.87;;;;;;;17.02;100.00;102693.45;1970519;73;33431;-72
2021/07/16 07:50:16;;;;;;;12.57;6.67;;;;;;;17.36;100.00;102693.63;1970258;73;32948;-73
2021/07/16 07:55:40;;;;;;;15.03;6.00;;;;;;;17.49;100.00;102693.02;1970673;73;30923;-74
2021/07/16 08:01:05;;;;;;;9.27;5.60;;;;;;;18.17;100.00;102696.05;1970692;73;30978;-75
2021/07/16 08:06:30;;;;;;;8.37;5.20;;;;;;;18.65;100.00;102694.31;1970786;73;30941;-74
2021/07/16 08:11:55;;;;;;;8.03;4.90;;;;;;;19.00;100.00;102687.47;1970434;73;30980;-75
2021/07/16 08:17:19;;;;;;;8.87;5.03;;;;;;;19.19;100.00;102685.59;1970814;73;31537;-75
2021/07/16 08:22:44;;;;;;;9.93;4.60;;;;;;;19.30;100.00;102681.50;1970597;73;31456;-73
2021/07/16 08:28:09;;;;;;;9.57;4.57;;;;;;;19.59;100.00;102674.43;1970347;73;31006;-75
2021/07/16 08:33:34;;;;;;;5.63;3.47;;;;;;;19.90;100.00;102666.36;1970087;73;33109;-74
2021/07/16 08:38:58;;;;;;;7.13;3.63;;;;;;;19.82;100.00;102662.81;1970320;73;31054;-75
2021/07/16 08:44:22;;;;;;;6.63;3.40;;;;;;;20.04;100.00;102658.83;1970596;73;31599;-75
2021/07/16 08:49:48;;;;;;;7.13;3.73;;;;;;;20.56;100.00;102650.66;1970221;73;31474;-75
2021/07/16 08:55:15;;;;;;;5.23;3.47;;;;;;;20.87;100.00;102654.63;1970561;73;31602;-72
2021/07/16 09:00:39;;;;;;;5.83;3.30;;;;;;;21.14;100.00;102645.34;1970769;73;31544;-75
2021/07/16 09:06:06;;;;;;;5.40;3.70;;;;;;;21.25;100.00;102643.17;1970657;73;31561;-73
2021/07/16 09:11:31;;;;;;;7.37;3.40;;;;;;;21.23;100.00;102645.45;1970651;73;30940;-73
2021/07/16 09:17:01;;;;;;;7.13;3.53;;;;;;;21.48;100.00;102644.92;1970422;73;31148;-74
2021/07/16 09:22:34;;;;;;;5.17;2.83;;;;;;;21.74;100.00;102641.80;1958657;71;31115;-72
2021/07/16 09:27:58;;;;;;;5.57;3.20;;;;;;;21.69;100.00;102643.31;1970529;73;33491;-74
2021/07/16 09:33:22;;;;;;;6.23;3.23;;;;;;;21.79;100.00;102647.34;1970591;73;31433;-73
2021/07/16 09:38:51;;;;;;;8.03;3.30;;;;;;;22.07;100.00;102641.65;1970365;73;31023;-74
2021/07/16 09:44:15;;;;;;;7.40;3.20;;;;;;;22.21;100.00;102639.58;1970543;73;31015;-72
2021/07/16 09:49:48;;;;;;;6.77;3.37;;;;;;;22.28;100.00;102637.16;1970563;73;30936;-72
2021/07/16 09:55:18;;;;;;;7.22;3.27;;;;;;;22.33;100.00;102638.45;1970407;72;30937;-73
2021/07/16 10:00:44;;;;;;;8.05;3.52;;;;;;;22.39;100.00;102638.56;1970530;73;31065;-73
2021/07/16 10:06:13;;;;;;;7.17;3.05;;;;;;;22.40;100.00;102640.23;1970510;73;31531;-73
2021/07/16 10:11:40;;;;;;;5.40;3.10;;;;;;;22.58;100.00;102641.20;1970589;72;31044;-73
2021/07/16 10:17:04;;;;;;;5.40;2.93;;;;;;;22.60;100.00;102640.28;1970328;73;30993;-74
2021/07/16 10:22:29;;;;;;;4.60;2.47;;;;;;;22.59;100.00;102639.44;1970355;72;31465;-73
2021/07/16 10:27:53;;;;;;;5.93;3.07;;;;;;;22.78;100.00;102633.59;1970381;73;31392;-72
2021/07/16 10:33:26;;;;;;;5.37;2.72;;;;;;;22.85;100.00;102637.41;1970463;73;31618;-73
2021/07/16 10:38:52;;;;;;;5.10;2.83;;;;;;;22.80;100.00;102634.70;1970444;73;31010;-74
2021/07/16 10:44:48;;;;;;;4.85;2.75;;;;;;;22.82;100.00;102628.11;1970756;73;30930;-72
2021/07/16 10:50:38;;;;;;;5.08;2.70;;;;;;;23.13;100.00;102631.20;1970539;73;31055;-73
2021/07/16 10:56:10;;;;;;;4.58;2.65;;;;;;;23.00;100.00;102631.30;1970459;73;31018;-73
2021/07/16 11:01:42;;;;;;;3.30;2.40;;;;;;;22.88;100.00;102629.66;1970542;73;31215;-73
2021/07/16 11:07:36;;;;;;;3.37;2.50;;;;;;;22.99;100.00;102633.29;1970526;73;31179;-74
2021/07/16 11:13:33;;;;;;;4.70;2.92;;;;;;;22.82;100.00;102640.86;1970696;73;31446;-74
2021/07/16 11:16:25;;;;;;;3.72;2.70;;;;;;;22.90;100.00;102645.16;1933207;74;24168;-73
2021/07/16 11:22:09;;;;;;;3.33;2.22;;;;;;;23.09;100.00;102641.52;1970685;71;31464;-77
2021/07/16 11:27:33;;;;;;;4.05;2.70;;;;;;;23.22;100.00;102643.15;1970565;73;30972;-73
2021/07/16 11:33:06;;;;;;;3.67;2.47;;;;;;;23.48;100.00;102637.85;1970457;73;31453;-72
2021/07/16 11:38:31;;;;;;;4.97;2.45;;;;;;;23.32;100.00;102642.25;1970680;73;31634;-74
2021/07/16 11:44:05;;;;;;;5.00;2.40;;;;;;;23.33;100.00;102638.27;1970434;73;31422;-74
2021/07/16 11:49:31;;;;;;;4.42;2.80;;;;;;;23.31;100.00;102639.19;1970331;73;30930;-77
2021/07/16 11:55:04;;;;;;;5.35;2.27;;;;;;;22.92;100.00;102644.27;1970318;73;31486;-73
2021/07/16 12:00:30;;;;;;;3.35;2.22;;;;;;;22.92;100.00;102643.43;1970267;73;31461;-72
2021/07/16 12:06:02;;;;;;;4.15;2.80;;;;;;;23.04;100.00;102650.73;1970377;73;31136;-74
2021/07/16 12:11:26;;;;;;;4.55;2.77;;;;;;;23.46;100.00;102652.09;1970127;73;31125;-74
2021/07/16 12:16:56;;;;;;;2.62;2.20;;;;;;;23.51;100.00;102645.70;1970276;73;31001;-72
2021/07/16 12:22:44;;;;;;;6.78;4.42;;;;;;;23.61;100.00;102649.39;2014303;71;31380;-77
2021/07/16 12:28:15;;;;;;;3.77;2.95;;;;;;;23.77;100.00;102644.91;1970055;73;30934;-77
2021/07/16 12:33:41;;;;;;;3.83;2.65;;;;;;;23.62;100.00;102643.98;1970530;73;31437;-73
2021/07/16 12:39:22;;;;;;;5.97;3.10;;;;;;;23.92;100.00;102638.16;1970227;73;31177;-73
2021/07/16 12:45:09;;;;;;;3.00;2.15;;;;;;;23.80;100.00;102632.30;1970429;73;31119;-72
2021/07/16 12:50:45;;;;;;;4.05;2.42;;;;;;;23.87;100.00;102624.16;1970726;73;30993;-75
2021/07/16 12:56:26;;;;;;;3.52;2.60;;;;;;;23.92;100.00;102627.38;1970940;73;31034;-70
2021/07/16 13:01:53;;;;;;;3.70;2.50;;;;;;;23.96;100.00;102626.38;1971001;73;31078;-72
2021/07/16 13:07:29;;;;;;;3.47;2.25;;;;;;;24.11;100.00;102621.39;1971120;73;31572;-73
2021/07/16 13:13:04;;;;;;;3.60;2.33;;;;;;;23.94;100.00;102633.58;1970922;73;31008;-76
2021/07/16 13:18:28;;;;;;;8.15;2.15;;;;;;;23.98;100.00;102638.27;1971054;73;31652;-72
2021/07/16 13:23:53;;;;;;;3.77;2.00;;;;;;;23.96;100.00;102630.64;1970479;73;30936;-73
2021/07/16 13:29:27;;;;;;;3.35;2.27;;;;;;;24.26;100.00;102636.55;1970756;73;30961;-75
2021/07/16 13:34:51;;;;;;;5.25;2.08;;;;;;;24.27;100.00;102630.52;1970600;73;30978;-71
2021/07/16 13:40:20;;;;;;;5.03;2.30;;;;;;;24.26;100.00;102635.12;1970769;73;31297;-71
2021/07/16 13:45:44;;;;;;;3.67;2.35;;;;;;;24.24;100.00;102639.71;1970819;73;31032;-72
2021/07/16 13:51:09;;;;;;;2.77;2.33;;;;;;;24.39;100.00;102630.66;1970876;73;31029;-73
2021/07/16 13:56:36;;;;;;;4.95;2.60;;;;;;;24.37;100.00;102630.77;1970774;73;31001;-72
2021/07/16 14:02:00;;;;;;;2.15;1.82;;;;;;;24.52;100.00;102627.38;1970816;73;31061;-72
2021/07/16 14:07:24;;;;;;;3.75;2.20;;;;;;;24.47;100.00;102618.45;1970775;73;30986;-74
2021/07/16 14:12:50;;;;;;;2.72;1.98;;;;;;;24.49;100.00;102629.48;1970936;73;31465;-72
2021/07/16 14:18:15;;;;;;;3.05;2.00;;;;;;;24.54;100.00;102619.95;1970798;73;30911;-72
2021/07/16 14:23:39;;;;;;;2.33;1.70;;;;;;;24.23;100.00;102621.00;1970940;73;31419;-73
2021/07/16 14:29:03;;;;;;;2.67;1.95;;;;;;;24.08;100.00;102617.80;1970850;73;30918;-72
2021/07/16 14:34:28;;;;;;;2.83;2.17;;;;;;;24.24;100.00;102621.25;1971076;73;31119;-73
2021/07/16 14:39:53;;;;;;;3.15;1.85;;;;;;;24.20;100.00;102617.41;1970732;73;31019;-73
2021/07/16 14:45:18;;;;;;;2.80;1.62;;;;;;;23.92;100.00;102621.70;1971092;73;31417;-73
2021/07/16 14:51:02;;;;;;;1.87;1.67;;;;;;;24.11;100.00;102609.45;2015233;71;31108;-74
2021/07/16 14:56:27;;;;;;;3.00;1.72;;;;;;;24.57;100.00;102617.27;1970628;73;31011;-73
2021/07/16 15:01:52;;;;;;;2.22;2.00;;;;;;;24.33;100.00;102605.62;1970650;73;31084;-72
2021/07/16 15:07:16;;;;;;;3.98;2.20;;;;;;;24.74;100.00;102612.95;1970787;72;31105;-72
2021/07/16 15:12:41;;;;;;;5.47;1.72;;;;;;;24.62;100.00;102607.14;1970779;73;31396;-72
2021/07/16 15:18:06;;;;;;;2.42;2.00;;;;;;;24.50;100.00;102608.44;1970476;73;30924;-72
2021/07/16 15:23:31;;;;;;;3.55;2.08;;;;;;;24.84;100.00;102601.23;1970518;73;30964;-72
2021/07/16 15:28:55;;;;;;;2.75;1.70;;;;;;;24.70;100.00;102595.50;1970716;73;30970;-72
2021/07/16 15:34:21;;;;;;;2.72;1.52;;;;;;;24.69;100.00;102598.92;1970712;73;30913;-72
2021/07/16 15:39:45;;;;;;;1.77;1.67;;;;;;;24.60;100.00;102602.98;1970680;73;30920;-74
2021/07/16 15:45:12;;;;;;;3.47;1.85;;;;;;;24.77;100.00;102596.63;1970660;73;31569;-72
2021/07/16 15:50:36;;;;;;;4.45;1.82;;;;;;;24.79;100.00;102582.93;1970609;73;30945;-72
2021/07/16 15:56:02;;;;;;;3.02;1.60;;;;;;;24.66;100.00;102591.66;1970668;73;30910;-72
2021/07/16 16:01:27;;;;;;;3.67;1.98;;;;;;;24.83;100.00;102595.28;1970697;73;30997;-70
2021/07/16 16:06:54;;;;;;;2.80;2.10;;;;;;;24.83;100.00;102597.29;1970832;73;31631;-74
2021/07/16 16:12:19;;;;;;;4.22;1.92;;;;;;;24.86;100.00;102596.05;1970633;72;31455;-75
2021/07/16 16:17:43;;;;;;;2.05;1.57;;;;;;;24.78;100.00;102600.31;1970758;73;30978;-74
2021/07/16 16:23:07;;;;;;;3.55;2.65;;;;;;;24.85;100.00;102593.53;1970741;73;31569;-75
2021/07/16 16:28:31;;;;;;;6.78;2.27;;;;;;;24.96;100.00;102598.28;1971088;73;31525;-79
2021/07/16 16:33:57;;;;;;;3.75;2.02;;;;;;;25.04;100.00;102606.77;1970970;73;31129;-80
2021/07/16 16:39:22;;;;;;;6.20;2.05;;;;;;;24.71;100.00;102611.38;1970746;73;30948;-80
2021/07/16 16:44:46;;;;;;;2.83;1.60;;;;;;;24.65;100.00;102619.25;1970753;72;31493;-77
2021/07/16 16:50:12;;;;;;;2.22;1.37;;;;;;;24.67;100.00;102613.23;1970692;73;31176;-79
2021/07/16 16:55:36;;;;;;;1.82;1.40;;;;;;;24.73;100.00;102618.39;1970840;73;30973;-77
2021/07/16 17:01:02;;;;;;;3.22;1.77;;;;;;;24.84;100.00;102610.34;1970799;73;31518;-79
2021/07/16 17:06:26;;;;;;;2.85;1.70;;;;;;;24.86;100.00;102613.11;1971064;73;30934;-72
2021/07/16 17:11:52;;;;;;;2.65;1.70;;;;;;;24.81;100.00;102618.97;1971048;73;31420;-72
2021/07/16 17:17:16;;;;;;;9.00;2.58;;;;;;;24.81;100.00;102615.30;1970835;73;31000;-79
2021/07/16 17:22:41;;;;;;;6.85;2.20;;;;;;;24.69;100.00;102620.85;1970711;73;31139;-72
2021/07/16 17:28:08;;;;;;;3.67;1.80;;;;;;;24.49;100.00;102623.22;1970971;73;31454;-75
2021/07/16 17:33:32;;;;;;;2.62;2.05;;;;;;;24.55;100.00;102630.16;1971113;73;30922;-79
2021/07/16 17:38:56;;;;;;;2.87;2.20;;;;;;;24.51;100.00;102625.73;1970977;73;30979;-75
2021/07/16 17:44:22;;;;;;;3.70;1.98;;;;;;;24.44;100.00;102625.39;1970713;73;31073;-79
2021/07/16 17:49:46;;;;;;;2.42;1.77;;;;;;;24.45;100.00;102637.85;1970894;73;31476;-81
2021/07/16 17:55:13;;;;;;;2.17;1.70;;;;;;;24.41;100.00;102640.28;1970754;73;30928;-73
2021/07/16 18:00:38;;;;;;;5.03;2.17;;;;;;;24.33;100.00;102647.65;1970954;73;30951;-72
2021/07/16 18:06:09;;;;;;;3.60;2.00;;;;;;;24.30;100.00;102644.64;1970983;72;31084;-79
2021/07/16 18:11:34;;;;;;;4.17;2.27;;;;;;;24.19;100.00;102656.92;1970626;73;31453;-73
2021/07/16 18:16:59;;;;;;;3.50;2.12;;;;;;;24.20;100.00;102650.66;1970909;73;30996;-76
2021/07/16 18:22:26;;;;;;;3.37;2.05;;;;;;;24.16;100.00;102656.17;1959560;71;30951;-73
2021/07/16 18:27:51;;;;;;;3.45;1.92;;;;;;;24.12;100.00;102660.82;1971222;73;31402;-74
2021/07/16 18:33:16;;;;;;;4.60;2.08;;;;;;;24.09;100.00;102667.75;1971048;73;31124;-74
2021/07/16 18:38:44;;;;;;;4.20;2.17;;;;;;;23.93;100.00;102670.23;1971092;73;31034;-78
2021/07/16 18:44:10;;;;;;;2.58;2.17;;;;;;;23.83;100.00;102673.41;1970949;73;31018;-74
2021/07/16 18:49:34;;;;;;;3.95;2.20;;;;;;;23.68;100.00;102678.11;1971302;73;31475;-82
2021/07/16 18:54:59;;;;;;;3.75;2.33;;;;;;;23.67;100.00;102676.43;1971183;73;31446;-80
2021/07/16 19:00:24;;;;;;;2.85;2.25;;;;;;;23.73;100.00;102685.89;1971228;73;31464;-84
2021/07/16 19:05:51;;;;;;;3.20;1.98;;;;;;;23.68;100.00;102687.47;1971082;73;31110;-72
2021/07/16 19:11:15;;;;;;;3.62;2.08;;;;;;;23.40;100.00;102688.27;1970996;73;31495;-74
2021/07/16 19:16:40;;;;;;;2.50;2.05;;;;;;;23.15;100.00;102686.98;1970855;73;30996;-73
2021/07/16 19:22:07;;;;;;;3.17;2.45;;;;;;;22.86;100.00;102703.66;1947525;72;30993;-72
2021/07/16 19:27:30;;;;;;;4.20;2.47;;;;;;;22.75;100.00;102702.84;1970711;72;31019;-72
2021/07/16 19:32:55;;;;;;;4.10;2.22;;;;;;;22.64;100.00;102705.89;1971068;73;31409;-69
2021/07/16 19:38:22;;;;;;;3.42;2.40;;;;;;;22.52;100.00;102707.63;1970725;73;31036;-74
2021/07/16 19:43:46;;;;;;;3.87;2.37;;;;;;;22.36;100.00;102712.84;1970817;73;30985;-81
2021/07/16 19:49:10;;;;;;;3.33;2.12;;;;;;;22.27;100.00;102717.59;1970903;73;31401;-74
2021/07/16 19:54:35;;;;;;;3.95;2.40;;;;;;;22.18;100.00;102729.41;1970557;72;30925;-75
2021/07/16 20:00:00;;;;;;;5.20;2.62;;;;;;;22.02;100.00;102726.09;1970848;73;31056;-74
2021/07/16 20:05:25;;;;;;;3.62;2.27;;;;;;;21.79;100.00;102727.13;1970620;73;31013;-72
2021/07/16 20:10:49;;;;;;;4.15;2.30;;;;;;;21.66;100.00;102740.13;1971140;73;31488;-74
2021/07/16 20:16:14;;;;;;;5.22;2.67;;;;;;;21.53;100.00;102736.73;1970717;73;30971;-72
2021/07/16 20:21:39;;;;;;;4.00;2.75;;;;;;;21.28;100.00;102745.14;1953434;73;30996;-69
2021/07/16 20:24:09;;;;;;;5.12;2.75;;;;;;;;;;1906349;75;24171;-73
2021/07/16 20:29:34;;;;;;;5.62;2.87;;;;;;;21.23;100.00;102758.52;1970853;73;31481;-72
2021/07/16 20:34:59;;;;;;;6.28;2.60;;;;;;;21.21;100.00;102765.92;1970726;73;31033;-75
2021/07/16 20:40:24;;;;;;;5.10;3.10;;;;;;;21.09;100.00;102775.45;1970964;73;31546;-76
2021/07/16 20:45:50;;;;;;;4.65;2.80;;;;;;;20.92;100.00;102774.34;1970840;73;33552;-73
2021/07/16 20:51:15;;;;;;;5.10;3.07;;;;;;;20.69;100.00;102786.84;1970616;73;31060;-75
2021/07/16 20:56:39;;;;;;;5.53;3.40;;;;;;;20.62;100.00;102786.98;1970755;72;32210;-69
2021/07/16 21:02:04;;;;;;;4.47;3.00;;;;;;;20.25;100.00;102796.23;1970747;73;31406;-72
2021/07/16 21:07:30;;;;;;;7.60;3.60;;;;;;;20.14;100.00;102796.11;1970692;73;31031;-73
2021/07/16 21:12:54;;;;;;;4.83;3.00;;;;;;;19.95;100.00;102796.91;1970993;73;30996;-72
2021/07/16 21:18:19;;;;;;;5.93;3.43;;;;;;;19.98;100.00;102803.95;1970837;73;31539;-75
2021/07/16 21:23:43;;;;;;;7.13;3.60;;;;;;;19.86;100.00;102808.58;1970665;73;30993;-73
2021/07/16 21:29:08;;;;;;;5.37;3.30;;;;;;;19.79;100.00;102809.52;1970708;73;31355;-71
2021/07/16 21:34:32;;;;;;;3.97;3.33;;;;;;;19.82;100.00;102811.73;1970644;73;30929;-75
2021/07/16 21:39:57;;;;;;;5.53;3.70;;;;;;;19.98;100.00;102801.94;1970650;73;33015;-74
2021/07/16 21:45:21;;;;;;;5.37;3.37;;;;;;;19.89;100.00;102805.18;1970658;73;31013;-74
2021/07/16 21:50:45;;;;;;;5.03;3.30;;;;;;;19.93;100.00;102796.95;1970911;73;31533;-75
2021/07/16 21:56:10;;;;;;;4.20;3.20;;;;;;;19.83;100.00;102803.55;1970601;73;31569;-75
2021/07/16 22:01:34;;;;;;;7.03;4.50;;;;;;;19.76;100.00;102811.54;1970917;73;31011;-74
2021/07/16 22:06:59;;;;;;;4.60;3.37;;;;;;;19.64;100.00;102811.09;1970615;73;30937;-76
2021/07/16 22:12:23;;;;;;;3.90;3.43;;;;;;;19.68;100.00;102817.81;1970822;73;31111;-76
2021/07/16 22:17:48;;;;;;;4.63;3.70;;;;;;;19.71;100.00;102816.39;1970785;73;31578;-75
2021/07/16 22:23:13;;;;;;;5.37;3.50;;;;;;;19.60;100.00;102823.27;1970650;73;30977;-74
2021/07/16 22:28:42;;;;;;;4.23;3.27;;;;;;;19.65;100.00;102828.85;1970869;73;30998;-72
2021/07/16 22:34:06;;;;;;;7.17;4.07;;;;;;;19.50;100.00;102834.09;1970823;73;31006;-76
2021/07/16 22:39:30;;;;;;;6.40;3.10;;;;;;;19.48;100.00;102838.61;1970683;73;31030;-75
2021/07/16 22:44:55;;;;;;;9.73;3.60;;;;;;;19.44;100.00;102835.28;1970773;73;33014;-73
2021/07/16 22:50:20;;;;;;;4.77;3.43;;;;;;;19.40;100.00;102841.20;1970824;73;30934;-76
2021/07/16 22:55:44;;;;;;;6.23;3.73;;;;;;;19.28;100.00;102833.16;1970765;73;30981;-74
2021/07/16 23:01:10;;;;;;;5.30;3.53;;;;;;;19.21;100.00;102836.05;1971038;73;31389;-75
2021/07/16 23:06:34;;;;;;;6.60;3.80;;;;;;;19.23;100.00;102837.42;1970949;72;30988;-76
2021/07/16 23:11:58;;;;;;;6.10;4.00;;;;;;;19.02;100.00;102833.94;1970939;72;31005;-75
2021/07/16 23:17:23;;;;;;;3.77;3.27;;;;;;;18.72;100.00;102832.77;1971026;73;31504;-76
2021/07/16 23:22:48;;;;;;;4.97;3.63;;;;;;;18.74;100.00;102836.11;1936367;74;31527;-73
2021/07/16 23:28:12;;;;;;;7.40;4.10;;;;;;;18.55;100.00;102837.38;1970823;73;31038;-75
2021/07/16 23:33:36;;;;;;;5.10;3.50;;;;;;;18.57;100.00;102839.87;1971038;73;33319;-75
2021/07/16 23:39:01;;;;;;;5.70;3.80;;;;;;;18.63;100.00;102837.32;1970575;73;31536;-75
2021/07/16 23:44:25;;;;;;;5.43;3.60;;;;;;;18.45;100.00;102842.17;1970850;72;31141;-76
2021/07/16 23:49:49;;;;;;;4.80;3.37;;;;;;;18.64;100.00;102841.27;1970646;73;30939;-75
2021/07/16 23:55:14;;;;;;;6.23;3.53;;;;;;;18.77;100.00;102834.14;1970779;73;30934;-74
